createdAt,value
2022-12-22T00:00:48.201Z,0.5
2022-12-22T00:01:50.262Z,0.5
2022-12-22T00:02:48.442Z,1.6
2022-12-22T00:03:48.340Z,1.6
2022-12-22T00:04:48.251Z,1.6
2022-12-22T00:05:48.266Z,0
2022-12-22T00:06:48.265Z,0
2022-12-22T00:07:48.246Z,0
2022-12-22T00:08:48.335Z,0
2022-12-22T00:09:48.269Z,0.8
2022-12-22T00:10:48.248Z,0.8
2022-12-22T00:11:48.247Z,0.8
2022-12-22T00:12:48.257Z,0
2022-12-22T00:13:48.277Z,0
2022-12-22T00:14:48.540Z,0
2022-12-22T00:15:48.213Z,0.8
2022-12-22T00:16:48.462Z,0.8
2022-12-22T00:17:48.280Z,0.8
2022-12-22T00:18:48.279Z,0.8
2022-12-22T00:19:48.276Z,0
2022-12-22T00:20:48.295Z,0
2022-12-22T00:21:48.267Z,0
2022-12-22T00:22:48.307Z,0.6
2022-12-22T00:23:48.260Z,0.6
2022-12-22T00:24:48.312Z,0.6
2022-12-22T00:25:48.255Z,0
2022-12-22T00:26:48.290Z,0
2022-12-22T00:27:48.288Z,0
2022-12-22T00:28:48.271Z,0
2022-12-22T00:29:48.288Z,0
2022-12-22T00:30:48.346Z,0
2022-12-22T00:31:48.282Z,0
2022-12-22T00:32:48.306Z,0.7
2022-12-22T00:33:48.573Z,0.7
2022-12-22T00:34:48.355Z,0.7
2022-12-22T00:35:48.350Z,0
2022-12-22T00:36:48.335Z,0
2022-12-22T00:37:48.580Z,0
2022-12-22T00:38:48.360Z,0
2022-12-22T00:39:48.380Z,0
2022-12-22T00:40:48.392Z,0
2022-12-22T00:41:48.368Z,0
2022-12-22T00:42:48.383Z,0
2022-12-22T00:43:48.374Z,0
2022-12-22T00:44:48.389Z,0
2022-12-22T00:45:48.466Z,0
2022-12-22T00:46:48.364Z,0
2022-12-22T00:47:48.418Z,0
2022-12-22T00:48:48.390Z,0
2022-12-22T00:49:48.649Z,0
2022-12-22T00:50:48.397Z,0
2022-12-22T00:51:48.376Z,0
2022-12-22T00:52:48.381Z,0
2022-12-22T00:53:48.383Z,0
2022-12-22T00:54:48.371Z,0
2022-12-22T00:55:48.426Z,0
2022-12-22T00:56:48.513Z,0
2022-12-22T00:57:48.442Z,0
2022-12-22T00:58:48.335Z,0
2022-12-22T00:59:48.324Z,0
2022-12-22T01:00:48.377Z,0
2022-12-22T01:01:48.482Z,0
2022-12-22T01:02:48.472Z,0
2022-12-22T01:03:48.469Z,0
2022-12-22T01:04:48.377Z,0
2022-12-22T01:05:48.385Z,0.5
2022-12-22T01:06:48.426Z,0.5
2022-12-22T01:07:48.377Z,0.5
2022-12-22T01:08:48.361Z,0.5
2022-12-22T01:09:48.396Z,0
2022-12-22T01:10:48.369Z,0
2022-12-22T01:11:48.380Z,0
2022-12-22T01:12:48.395Z,0.7
2022-12-22T01:13:48.388Z,0.7
2022-12-22T01:14:48.361Z,0.7
2022-12-22T01:15:48.444Z,0
2022-12-22T01:16:48.344Z,0
2022-12-22T01:17:48.383Z,0
2022-12-22T01:18:48.385Z,0
2022-12-22T01:19:48.377Z,0.5
2022-12-22T01:20:48.354Z,0.5
2022-12-22T01:21:48.399Z,0.5
2022-12-22T01:22:48.373Z,0
2022-12-22T01:23:48.405Z,0
2022-12-22T01:24:48.365Z,0
2022-12-22T01:25:48.390Z,0
2022-12-22T01:26:48.359Z,0.7
2022-12-22T01:27:48.383Z,0.7
2022-12-22T01:28:48.413Z,0.7
2022-12-22T01:29:48.458Z,0
2022-12-22T01:30:48.389Z,0
2022-12-22T01:31:48.383Z,0
2022-12-22T01:32:48.380Z,0.9
2022-12-22T01:33:48.405Z,0.9
2022-12-22T01:34:48.371Z,0.9
2022-12-22T01:35:48.397Z,0.9
2022-12-22T01:36:48.362Z,0
2022-12-22T01:37:48.482Z,0
2022-12-22T01:38:48.373Z,0
2022-12-22T01:39:48.386Z,0.9
2022-12-22T01:40:48.379Z,0.9
2022-12-22T01:41:48.400Z,0.9
2022-12-22T01:42:48.482Z,0
2022-12-22T01:43:48.393Z,0
2022-12-22T01:44:48.422Z,0
2022-12-22T01:45:48.521Z,0
2022-12-22T01:46:48.506Z,1.1
2022-12-22T01:47:48.498Z,1.1
2022-12-22T01:48:48.371Z,1.1
2022-12-22T01:49:48.404Z,0.6
2022-12-22T01:50:48.640Z,0.6
2022-12-22T01:51:48.459Z,0.6
2022-12-22T01:52:48.413Z,1.2
2022-12-22T01:53:48.553Z,1.2
2022-12-22T01:54:48.436Z,1.2
2022-12-22T01:55:48.496Z,1.2
2022-12-22T01:56:48.409Z,1.2
2022-12-22T01:57:48.500Z,1.2
2022-12-22T01:58:48.517Z,1.2
2022-12-22T01:59:48.470Z,1.2
2022-12-22T02:00:48.463Z,1.2
2022-12-22T02:01:48.573Z,1.2
2022-12-22T02:02:48.527Z,1.5
2022-12-22T02:03:48.445Z,1.5
2022-12-22T02:04:48.419Z,1.5
2022-12-22T02:05:48.433Z,1.5
2022-12-22T02:06:48.412Z,1.6
2022-12-22T02:07:48.508Z,1.6
2022-12-22T02:08:48.434Z,1.6
2022-12-22T02:09:48.437Z,3
2022-12-22T02:10:48.433Z,3
2022-12-22T02:11:48.451Z,3
2022-12-22T02:12:48.463Z,2.5
2022-12-22T02:13:48.428Z,2.5
2022-12-22T02:14:48.423Z,2.5
2022-12-22T02:15:48.500Z,2.5
2022-12-22T02:16:48.485Z,4
2022-12-22T02:17:48.515Z,4
2022-12-22T02:18:48.435Z,4
2022-12-22T02:19:48.457Z,0
2022-12-22T02:20:48.435Z,0
2022-12-22T02:21:48.442Z,0
2022-12-22T02:22:48.443Z,1
2022-12-22T02:23:48.456Z,1
2022-12-22T02:24:48.484Z,1
2022-12-22T02:25:48.457Z,1
2022-12-22T02:26:48.436Z,2.6
2022-12-22T02:27:48.524Z,2.6
2022-12-22T02:28:48.437Z,2.6
2022-12-22T02:29:48.469Z,0.8
2022-12-22T02:30:48.479Z,0.8
2022-12-22T02:31:48.485Z,0.8
2022-12-22T02:32:48.624Z,0.8
2022-12-22T02:33:48.478Z,1
2022-12-22T02:34:48.445Z,1
2022-12-22T02:35:48.456Z,1
2022-12-22T02:36:48.440Z,1
2022-12-22T02:37:48.532Z,1
2022-12-22T02:38:48.449Z,1
2022-12-22T02:39:48.542Z,1.3
2022-12-22T02:40:48.458Z,1.3
2022-12-22T02:41:48.689Z,1.3
2022-12-22T02:42:48.620Z,1.3
2022-12-22T02:43:48.530Z,0.8
2022-12-22T02:44:48.588Z,0.8
2022-12-22T02:45:48.544Z,0.8
2022-12-22T02:46:48.562Z,0.9
2022-12-22T02:47:48.582Z,0.9
2022-12-22T02:48:48.625Z,0.9
2022-12-22T02:49:48.605Z,1.2
2022-12-22T02:50:48.594Z,1.2
2022-12-22T02:51:48.540Z,1.2
2022-12-22T02:52:48.577Z,1.2
2022-12-22T02:53:48.583Z,2
2022-12-22T02:54:48.585Z,2
2022-12-22T02:55:48.579Z,2
2022-12-22T02:56:48.590Z,2.7
2022-12-22T02:57:48.595Z,2.7
2022-12-22T02:58:48.579Z,2.7
2022-12-22T02:59:48.581Z,0.8
2022-12-22T03:00:48.647Z,0.8
2022-12-22T03:01:48.818Z,0.8
2022-12-22T03:02:48.762Z,0.8
2022-12-22T03:03:48.661Z,1.2
2022-12-22T03:04:48.725Z,1.2
2022-12-22T03:05:48.578Z,1.2
2022-12-22T03:06:48.578Z,1.2
2022-12-22T03:07:48.651Z,1.2
2022-12-22T03:08:48.581Z,1.2
2022-12-22T03:09:48.669Z,0.8
2022-12-22T03:10:48.657Z,0.8
2022-12-22T03:11:48.615Z,0.8
2022-12-22T03:12:48.684Z,0.8
2022-12-22T03:13:48.602Z,1.7
2022-12-22T03:14:48.610Z,1.7
2022-12-22T03:15:48.621Z,1.7
2022-12-22T03:16:48.682Z,1.2
2022-12-22T03:17:48.696Z,1.2
2022-12-22T03:18:48.666Z,1.2
2022-12-22T03:19:48.689Z,1.4
2022-12-22T03:20:48.653Z,1.4
2022-12-22T03:21:48.670Z,1.4
2022-12-22T03:22:48.673Z,1.4
2022-12-22T03:23:48.664Z,1.2
2022-12-22T03:24:48.719Z,1.2
2022-12-22T03:25:48.728Z,1.2
2022-12-22T03:26:48.639Z,2.1
2022-12-22T03:27:48.728Z,2.1
2022-12-22T03:28:48.704Z,2.1
2022-12-22T03:29:48.703Z,0
2022-12-22T03:30:48.746Z,0
2022-12-22T03:31:48.736Z,0
2022-12-22T03:32:48.975Z,0
2022-12-22T03:33:48.673Z,2.6
2022-12-22T03:34:48.683Z,2.6
2022-12-22T03:35:48.693Z,2.6
2022-12-22T03:36:48.692Z,2.2
2022-12-22T03:37:48.725Z,2.2
2022-12-22T03:38:48.885Z,2.2
2022-12-22T03:39:48.740Z,0.6
2022-12-22T03:40:48.691Z,0.6
2022-12-22T03:41:48.739Z,0.6
2022-12-22T03:42:48.740Z,0.6
2022-12-22T03:43:48.739Z,2.4
2022-12-22T03:44:48.811Z,2.4
2022-12-22T03:45:48.986Z,2.4
2022-12-22T03:46:48.942Z,1.8
2022-12-22T03:47:48.869Z,1.8
2022-12-22T03:48:48.887Z,1.8
2022-12-22T03:49:48.855Z,1.8
2022-12-22T03:50:48.845Z,0.8
2022-12-22T03:51:49.317Z,0.8
2022-12-22T03:52:48.947Z,0.8
2022-12-22T03:53:48.959Z,1.7
2022-12-22T03:54:48.915Z,1.7
2022-12-22T03:55:48.955Z,1.7
2022-12-22T03:56:48.909Z,0.6
2022-12-22T03:57:49.039Z,0.6
2022-12-22T03:58:48.958Z,0.6
2022-12-22T03:59:48.957Z,0.6
2022-12-22T04:00:48.986Z,2.2
2022-12-22T04:01:49.123Z,2.2
2022-12-22T04:02:49.053Z,2.2
2022-12-22T04:03:48.955Z,2.2
2022-12-22T04:04:48.922Z,2.2
2022-12-22T04:05:48.950Z,2.2
2022-12-22T04:06:48.950Z,1.9
2022-12-22T04:07:48.993Z,1.9
2022-12-22T04:08:49.003Z,1.9
2022-12-22T04:09:48.953Z,1.9
2022-12-22T04:10:48.930Z,1
2022-12-22T04:11:48.956Z,1
2022-12-22T04:12:48.928Z,1
2022-12-22T04:13:48.981Z,0
2022-12-22T04:14:48.931Z,0
2022-12-22T04:15:48.989Z,0
2022-12-22T04:16:49.048Z,1
2022-12-22T04:17:48.994Z,1
2022-12-22T04:18:48.933Z,1
2022-12-22T04:19:48.962Z,1
2022-12-22T04:20:48.946Z,2.4
2022-12-22T04:21:48.964Z,2.4
2022-12-22T04:22:48.932Z,2.4
2022-12-22T04:23:48.933Z,1.3
2022-12-22T04:24:49.042Z,1.3
2022-12-22T04:25:48.980Z,1.3
2022-12-22T04:26:48.938Z,1.6
2022-12-22T04:27:49.000Z,1.6
2022-12-22T04:28:49.013Z,1.6
2022-12-22T04:29:48.984Z,1.6
2022-12-22T04:30:48.945Z,1.1
2022-12-22T04:31:49.060Z,1.1
2022-12-22T04:32:48.960Z,1.1
2022-12-22T04:33:48.985Z,1.3
2022-12-22T04:34:48.945Z,1.3
2022-12-22T04:35:48.932Z,1.3
2022-12-22T04:36:49.058Z,2.2
2022-12-22T04:37:48.983Z,2.2
2022-12-22T04:38:48.945Z,2.2
2022-12-22T04:39:48.987Z,2.2
2022-12-22T04:40:48.999Z,0.8
2022-12-22T04:41:48.967Z,0.8
2022-12-22T04:42:48.971Z,0.8
2022-12-22T04:43:48.989Z,1.8
2022-12-22T04:44:48.933Z,1.8
2022-12-22T04:45:49.035Z,1.8
2022-12-22T04:46:48.952Z,0.5
2022-12-22T04:47:48.973Z,0.5
2022-12-22T04:48:50.968Z,0.5
2022-12-22T04:49:48.978Z,0.5
2022-12-22T04:50:48.944Z,3.4
2022-12-22T04:51:48.986Z,3.4
2022-12-22T04:52:48.970Z,3.4
2022-12-22T04:53:48.972Z,2.8
2022-12-22T04:54:49.024Z,2.8
2022-12-22T04:55:48.991Z,2.8
2022-12-22T04:56:49.173Z,1.5
2022-12-22T04:57:49.466Z,1.5
2022-12-22T04:58:48.959Z,1.5
2022-12-22T04:59:48.984Z,1.5
2022-12-22T05:00:49.051Z,1.1
2022-12-22T05:01:49.065Z,1.1
2022-12-22T05:02:49.025Z,1.1
2022-12-22T05:03:49.009Z,1.6
2022-12-22T05:04:48.953Z,1.6
2022-12-22T05:05:48.993Z,1.6
2022-12-22T05:06:48.980Z,0.8
2022-12-22T05:07:49.241Z,0.8
2022-12-22T05:08:49.036Z,0.8
2022-12-22T05:09:49.022Z,0.8
2022-12-22T05:10:49.024Z,1.3
2022-12-22T05:11:49.062Z,1.3
2022-12-22T05:12:49.069Z,1.3
2022-12-22T05:13:49.354Z,1.1
2022-12-22T05:14:49.056Z,1.1
2022-12-22T05:15:49.073Z,1.1
2022-12-22T05:16:49.152Z,1.1
2022-12-22T05:17:49.064Z,1.5
2022-12-22T05:18:49.056Z,1.5
2022-12-22T05:19:49.072Z,1.5
2022-12-22T05:20:49.075Z,0
2022-12-22T05:21:49.072Z,0
2022-12-22T05:22:49.048Z,0
2022-12-22T05:23:49.071Z,2.4
2022-12-22T05:24:49.109Z,2.4
2022-12-22T05:25:49.068Z,2.4
2022-12-22T05:26:49.071Z,2.4
2022-12-22T05:27:49.089Z,1
2022-12-22T05:28:49.102Z,1
2022-12-22T05:29:49.105Z,1
2022-12-22T05:30:49.157Z,1.6
2022-12-22T05:31:49.095Z,1.6
2022-12-22T05:32:49.083Z,1.6
2022-12-22T05:33:49.089Z,2.4
2022-12-22T05:34:49.056Z,2.4
2022-12-22T05:35:49.086Z,2.4
2022-12-22T05:36:49.111Z,2.4
2022-12-22T05:37:49.121Z,3
2022-12-22T05:38:49.075Z,3
2022-12-22T05:39:49.094Z,3
2022-12-22T05:40:49.061Z,1.5
2022-12-22T05:41:49.100Z,1.5
2022-12-22T05:42:49.110Z,1.5
2022-12-22T05:43:49.104Z,2.4
2022-12-22T05:44:49.103Z,2.4
2022-12-22T05:45:49.157Z,2.4
2022-12-22T05:46:49.068Z,2.4
2022-12-22T05:47:49.122Z,2
2022-12-22T05:48:49.120Z,2
2022-12-22T05:49:49.114Z,2
2022-12-22T05:50:49.224Z,1
2022-12-22T05:51:49.116Z,1
2022-12-22T05:52:49.091Z,1
2022-12-22T05:53:49.198Z,2.2
2022-12-22T05:54:49.092Z,2.2
2022-12-22T05:55:49.162Z,2.2
2022-12-22T05:56:49.069Z,2.2
2022-12-22T05:57:49.123Z,3.2
2022-12-22T05:58:49.114Z,3.2
2022-12-22T05:59:49.130Z,3.2
2022-12-22T06:00:49.144Z,3.5
2022-12-22T06:01:49.168Z,3.5
2022-12-22T06:02:49.204Z,3.5
2022-12-22T06:03:52.196Z,2.6
2022-12-22T06:04:49.184Z,2.6
2022-12-22T06:05:49.233Z,2.6
2022-12-22T06:06:49.167Z,2.6
2022-12-22T06:07:49.186Z,1.4
2022-12-22T06:08:49.180Z,1.4
2022-12-22T06:09:49.236Z,1.4
2022-12-22T06:10:49.204Z,2.1
2022-12-22T06:11:49.284Z,2.1
2022-12-22T06:12:49.198Z,2.1
2022-12-22T06:13:49.209Z,2.8
2022-12-22T06:14:49.186Z,2.8
2022-12-22T06:15:49.261Z,2.8
2022-12-22T06:16:49.214Z,2.8
2022-12-22T06:17:49.278Z,1.7
2022-12-22T06:18:49.201Z,1.7
2022-12-22T06:19:49.208Z,1.7
2022-12-22T06:20:49.218Z,1.2
2022-12-22T06:21:49.188Z,1.2
2022-12-22T06:22:49.202Z,1.2
2022-12-22T06:23:49.202Z,3.1
2022-12-22T06:24:49.166Z,3.1
2022-12-22T06:25:49.166Z,3.1
2022-12-22T06:26:49.220Z,3.1
2022-12-22T06:27:49.176Z,2.6
2022-12-22T06:28:49.167Z,2.6
2022-12-22T06:29:49.172Z,2.6
2022-12-22T06:30:49.287Z,1.2
2022-12-22T06:31:49.295Z,1.2
2022-12-22T06:32:49.266Z,1.2
2022-12-22T06:33:49.262Z,2.4
2022-12-22T06:34:49.258Z,2.4
2022-12-22T06:35:53.830Z,2.4
2022-12-22T06:36:49.211Z,2.4
2022-12-22T06:37:49.192Z,3.7
2022-12-22T06:38:49.196Z,3.7
2022-12-22T06:39:49.202Z,3.7
2022-12-22T06:40:49.202Z,3.1
2022-12-22T06:41:49.232Z,3.1
2022-12-22T06:42:49.226Z,3.1
2022-12-22T06:43:49.265Z,3.1
2022-12-22T06:44:49.197Z,2.4
2022-12-22T06:45:49.214Z,2.4
2022-12-22T06:46:49.287Z,2.4
2022-12-22T06:47:49.211Z,0.9
2022-12-22T06:48:49.263Z,0.9
2022-12-22T06:49:49.633Z,0.9
2022-12-22T06:50:49.475Z,0.8
2022-12-22T06:51:49.544Z,0.8
2022-12-22T06:52:49.602Z,0.8
2022-12-22T06:53:49.457Z,0.8
2022-12-22T06:54:49.503Z,4.1
2022-12-22T06:55:49.370Z,4.1
2022-12-22T06:56:49.372Z,4.1
2022-12-22T06:57:49.433Z,2
2022-12-22T06:58:49.381Z,2
2022-12-22T06:59:53.675Z,2
2022-12-22T07:00:49.409Z,2
2022-12-22T07:01:49.751Z,0.9
2022-12-22T07:02:49.774Z,0.9
2022-12-22T07:03:49.479Z,0.9
2022-12-22T07:04:49.436Z,2
2022-12-22T07:05:49.388Z,2
2022-12-22T07:06:49.387Z,2
2022-12-22T07:07:49.426Z,2
2022-12-22T07:08:49.391Z,4.1
2022-12-22T07:09:49.438Z,4.1
2022-12-22T07:10:49.406Z,4.1
2022-12-22T07:11:49.435Z,1.1
2022-12-22T07:12:49.415Z,1.1
2022-12-22T07:13:49.420Z,1.1
2022-12-22T07:14:49.364Z,1
2022-12-22T07:15:55.407Z,1
2022-12-22T07:16:49.385Z,1
2022-12-22T07:17:49.443Z,1
2022-12-22T07:18:49.431Z,3
2022-12-22T07:19:49.429Z,3
2022-12-22T07:20:49.466Z,3
2022-12-22T07:21:49.648Z,1.2
2022-12-22T07:22:49.466Z,1.2
2022-12-22T07:23:49.451Z,1.2
2022-12-22T07:24:49.463Z,2.3
2022-12-22T07:25:49.548Z,2.3
2022-12-22T07:26:49.415Z,2.3
2022-12-22T07:27:49.419Z,2.3
2022-12-22T07:28:49.460Z,0.8
2022-12-22T07:29:49.417Z,0.8
2022-12-22T07:30:49.481Z,0.8
2022-12-22T07:31:49.488Z,2.5
2022-12-22T07:32:49.472Z,2.5
2022-12-22T07:33:49.462Z,2.5
2022-12-22T07:34:49.458Z,2.5
2022-12-22T07:35:49.733Z,2.5
2022-12-22T07:36:49.489Z,2.5
2022-12-22T07:37:49.499Z,2.5
2022-12-22T07:38:49.483Z,0
2022-12-22T07:39:49.469Z,0
2022-12-22T07:40:51.946Z,0
2022-12-22T07:41:49.464Z,1.6
2022-12-22T07:42:49.580Z,1.6
2022-12-22T07:43:49.754Z,1.6
2022-12-22T07:44:49.467Z,1.6
2022-12-22T07:45:49.649Z,0
2022-12-22T07:46:49.703Z,0
2022-12-22T07:47:49.472Z,0
2022-12-22T07:48:49.503Z,3.4
2022-12-22T07:49:49.489Z,3.4
2022-12-22T07:50:49.515Z,3.4
2022-12-22T07:51:49.496Z,2.9
2022-12-22T07:52:49.512Z,2.9
2022-12-22T07:53:49.531Z,2.9
2022-12-22T07:54:49.519Z,2.9
2022-12-22T07:55:49.518Z,4
2022-12-22T07:56:49.490Z,4
2022-12-22T07:57:49.493Z,4
2022-12-22T07:58:49.541Z,2.9
2022-12-22T07:59:49.501Z,2.9
2022-12-22T08:00:49.503Z,2.9
2022-12-22T08:01:49.650Z,3.8
2022-12-22T08:02:49.710Z,3.8
2022-12-22T08:03:49.531Z,3.8
2022-12-22T08:04:49.562Z,3.8
2022-12-22T08:05:49.529Z,3
2022-12-22T08:06:49.519Z,3
2022-12-22T08:07:49.526Z,3
2022-12-22T08:08:49.573Z,0.8
2022-12-22T08:09:49.515Z,0.8
2022-12-22T08:10:49.516Z,0.8
2022-12-22T08:11:49.535Z,2.6
2022-12-22T08:12:49.560Z,2.6
2022-12-22T08:13:49.583Z,2.6
2022-12-22T08:14:49.613Z,2.6
2022-12-22T08:15:49.589Z,4.4
2022-12-22T08:16:49.703Z,4.4
2022-12-22T08:17:49.538Z,4.4
2022-12-22T08:18:49.591Z,2.7
2022-12-22T08:19:49.534Z,2.7
2022-12-22T08:20:49.543Z,2.7
2022-12-22T08:21:52.721Z,4
2022-12-22T08:22:49.539Z,4
2022-12-22T08:23:49.596Z,4
2022-12-22T08:24:49.571Z,4
2022-12-22T08:25:49.539Z,2.1
2022-12-22T08:26:49.605Z,2.1
2022-12-22T08:27:49.599Z,2.1
2022-12-22T08:28:49.763Z,3.5
2022-12-22T08:29:49.546Z,3.5
2022-12-22T08:30:49.558Z,3.5
2022-12-22T08:31:49.658Z,3.5
2022-12-22T08:32:49.660Z,2.4
2022-12-22T08:33:49.600Z,2.4
2022-12-22T08:34:49.570Z,2.4
2022-12-22T08:35:49.651Z,1.9
2022-12-22T08:36:49.603Z,1.9
2022-12-22T08:37:49.555Z,1.9
2022-12-22T08:38:49.591Z,1.9
2022-12-22T08:39:49.627Z,2.6
2022-12-22T08:40:49.574Z,2.6
2022-12-22T08:41:49.604Z,2.6
2022-12-22T08:42:49.692Z,2.6
2022-12-22T08:43:49.865Z,2.9
2022-12-22T08:44:49.676Z,2.9
2022-12-22T08:45:49.736Z,2.9
2022-12-22T08:46:49.672Z,3.8
2022-12-22T08:47:49.763Z,3.8
2022-12-22T08:48:49.738Z,3.8
2022-12-22T08:49:49.622Z,3.8
2022-12-22T08:50:49.585Z,1.3
2022-12-22T08:51:50.058Z,1.3
2022-12-22T08:52:49.743Z,1.3
2022-12-22T08:54:06.362Z,3.6
2022-12-22T08:54:49.727Z,3.6
2022-12-22T08:55:49.691Z,3.6
2022-12-22T08:56:49.756Z,5.3
2022-12-22T08:57:55.770Z,5.3
2022-12-22T08:58:50.031Z,5.3
2022-12-22T08:59:50.214Z,5.3
2022-12-22T09:00:49.873Z,5.5
2022-12-22T09:01:49.851Z,5.5
2022-12-22T09:02:49.917Z,5.5
2022-12-22T09:03:49.810Z,5.5
2022-12-22T09:04:49.738Z,4.6
2022-12-22T09:05:49.734Z,4.6
2022-12-22T09:06:49.749Z,4.6
2022-12-22T09:07:49.731Z,4.6
2022-12-22T09:08:49.768Z,2.4
2022-12-22T09:09:49.766Z,2.4
2022-12-22T09:10:49.746Z,2.4
2022-12-22T09:11:49.759Z,4.2
2022-12-22T09:12:49.805Z,4.2
2022-12-22T09:13:49.773Z,4.2
2022-12-22T09:14:49.820Z,2.9
2022-12-22T09:15:49.756Z,2.9
2022-12-22T09:16:49.835Z,2.9
2022-12-22T09:17:49.770Z,2.9
2022-12-22T09:18:49.798Z,3.5
2022-12-22T09:19:49.787Z,3.5
2022-12-22T09:20:49.760Z,3.5
2022-12-22T09:21:49.796Z,3.5
2022-12-22T09:22:49.758Z,4.2
2022-12-22T09:23:49.795Z,4.2
2022-12-22T09:24:49.764Z,4.2
2022-12-22T09:25:49.768Z,2.8
2022-12-22T09:26:49.797Z,2.8
2022-12-22T09:27:49.790Z,2.8
2022-12-22T09:28:50.847Z,2.8
2022-12-22T09:29:49.793Z,1.9
2022-12-22T09:30:49.768Z,1.9
2022-12-22T09:31:49.804Z,1.9
2022-12-22T09:32:49.788Z,2.9
2022-12-22T09:33:49.778Z,2.9
2022-12-22T09:34:49.764Z,2.9
2022-12-22T09:35:49.769Z,2.9
2022-12-22T09:36:49.786Z,2.6
2022-12-22T09:37:49.783Z,2.6
2022-12-22T09:38:49.810Z,2.6
2022-12-22T09:39:49.796Z,2.7
2022-12-22T09:40:49.798Z,2.7
2022-12-22T09:41:49.798Z,2.7
2022-12-22T09:42:49.797Z,2.5
2022-12-22T09:43:49.829Z,2.5
2022-12-22T09:44:49.830Z,2.5
2022-12-22T09:45:49.817Z,3.8
2022-12-22T09:46:49.805Z,3.8
2022-12-22T09:47:49.827Z,3.8
2022-12-22T09:48:49.826Z,3.8
2022-12-22T09:49:49.812Z,3.1
2022-12-22T09:50:49.793Z,3.1
2022-12-22T09:51:49.835Z,3.1
2022-12-22T09:52:49.805Z,2.8
2022-12-22T09:53:49.831Z,2.8
2022-12-22T09:54:49.802Z,2.8
2022-12-22T09:55:49.851Z,3.5
2022-12-22T09:56:49.824Z,3.5
2022-12-22T09:57:49.861Z,3.5
2022-12-22T09:58:49.836Z,3.5
2022-12-22T09:59:49.805Z,2.5
2022-12-22T10:00:49.874Z,2.5
2022-12-22T10:01:49.919Z,2.5
2022-12-22T10:02:49.834Z,2.5
2022-12-22T10:03:51.757Z,2.5
2022-12-22T10:04:49.804Z,2.5
2022-12-22T10:05:49.811Z,3.3
2022-12-22T10:06:49.827Z,3.3
2022-12-22T10:07:49.840Z,3.3
2022-12-22T10:08:49.823Z,2.4
2022-12-22T10:09:51.410Z,2.4
2022-12-22T10:10:49.811Z,2.4
2022-12-22T10:11:49.837Z,2.4
2022-12-22T10:12:49.808Z,3.7
2022-12-22T10:13:49.942Z,3.7
2022-12-22T10:14:49.817Z,3.7
2022-12-22T10:15:49.816Z,3.7
2022-12-22T10:16:49.935Z,3.7
2022-12-22T10:17:49.850Z,3.2
2022-12-22T10:18:50.050Z,3.2
2022-12-22T10:19:49.825Z,3.2
2022-12-22T10:20:49.812Z,3.2
2022-12-22T10:21:49.828Z,3.2
2022-12-22T10:22:49.825Z,3.5
2022-12-22T10:23:49.852Z,3.5
2022-12-22T10:24:49.829Z,3.5
2022-12-22T10:26:26.622Z,3.5
2022-12-22T10:26:49.857Z,4.6
2022-12-22T10:27:51.525Z,4.6
2022-12-22T10:28:49.823Z,4.6
2022-12-22T10:29:49.815Z,3.9
2022-12-22T10:30:49.832Z,3.9
2022-12-22T10:31:49.894Z,3.9
2022-12-22T10:32:49.864Z,3.9
2022-12-22T10:33:49.955Z,3.9
2022-12-22T10:34:49.928Z,3.9
2022-12-22T10:35:49.828Z,3.9
2022-12-22T10:36:49.853Z,3.9
2022-12-22T10:37:49.853Z,3.9
2022-12-22T10:38:49.883Z,4.2
2022-12-22T10:39:49.842Z,4.2
2022-12-22T10:40:49.883Z,4.2
2022-12-22T10:41:49.875Z,4.2
2022-12-22T10:42:49.858Z,6.5
2022-12-22T10:43:49.915Z,6.5
2022-12-22T10:44:49.880Z,6.5
2022-12-22T10:45:49.941Z,5.8
2022-12-22T10:46:49.881Z,5.8
2022-12-22T10:47:49.898Z,5.8
2022-12-22T10:48:49.967Z,5.8
2022-12-22T10:49:49.881Z,5.8
2022-12-22T10:50:49.938Z,6.1
2022-12-22T10:51:49.893Z,6.1
2022-12-22T10:52:49.893Z,6.1
2022-12-22T10:53:49.936Z,6.1
2022-12-22T10:54:49.884Z,3.8
2022-12-22T10:55:49.931Z,3.8
2022-12-22T10:56:49.874Z,3.8
2022-12-22T10:57:49.880Z,4.8
2022-12-22T10:58:50.031Z,4.8
2022-12-22T10:59:49.904Z,4.8
2022-12-22T11:00:49.886Z,4.8
2022-12-22T11:01:49.978Z,5.1
2022-12-22T11:02:49.999Z,5.1
2022-12-22T11:03:49.948Z,5.1
2022-12-22T11:04:49.907Z,5.1
2022-12-22T11:05:49.910Z,5.9
2022-12-22T11:06:49.885Z,5.9
2022-12-22T11:07:49.929Z,5.9
2022-12-22T11:08:51.702Z,3.8
2022-12-22T11:09:49.942Z,3.8
2022-12-22T11:10:49.933Z,3.8
2022-12-22T11:11:49.932Z,3.8
2022-12-22T11:12:49.932Z,4.3
2022-12-22T11:13:49.927Z,4.3
2022-12-22T11:14:49.956Z,4.3
2022-12-22T11:15:50.028Z,4.3
2022-12-22T11:16:50.021Z,2.8
2022-12-22T11:17:49.954Z,2.8
2022-12-22T11:18:50.001Z,2.8
2022-12-22T11:19:50.094Z,2.8
2022-12-22T11:20:50.027Z,4
2022-12-22T11:21:49.996Z,4
2022-12-22T11:22:50.030Z,4
2022-12-22T11:23:50.002Z,4
2022-12-22T11:24:50.016Z,3
2022-12-22T11:25:50.000Z,3
2022-12-22T11:26:49.992Z,3
2022-12-22T11:27:50.037Z,3.7
2022-12-22T11:28:50.047Z,3.7
2022-12-22T11:29:50.105Z,3.7
2022-12-22T11:30:50.221Z,3.7
2022-12-22T11:31:50.047Z,3.7
2022-12-22T11:32:50.005Z,3.7
2022-12-22T11:33:50.112Z,4.1
2022-12-22T11:34:50.008Z,4.1
2022-12-22T11:35:50.065Z,4.1
2022-12-22T11:36:50.117Z,4.1
2022-12-22T11:37:50.029Z,4.1
2022-12-22T11:38:50.059Z,4.1
2022-12-22T11:39:51.885Z,4
2022-12-22T11:40:50.033Z,4
2022-12-22T11:41:50.054Z,4
2022-12-22T11:42:50.025Z,4
2022-12-22T11:43:50.068Z,5
2022-12-22T11:44:50.056Z,5
2022-12-22T11:45:50.142Z,5
2022-12-22T11:46:50.118Z,5
2022-12-22T11:47:50.128Z,2.9
2022-12-22T11:48:50.133Z,2.9
2022-12-22T11:49:50.165Z,2.9
2022-12-22T11:51:00.433Z,2.9
2022-12-22T11:51:50.086Z,2.1
2022-12-22T11:52:50.108Z,2.1
2022-12-22T11:53:50.109Z,2.1
2022-12-22T11:54:50.084Z,2.1
2022-12-22T11:55:50.095Z,6.4
2022-12-22T11:56:50.118Z,6.4
2022-12-22T11:57:50.053Z,6.4
2022-12-22T11:58:50.086Z,6
2022-12-22T11:59:50.117Z,6
2022-12-22T12:01:13.944Z,6
2022-12-22T12:01:50.291Z,6
2022-12-22T12:02:50.174Z,3.2
2022-12-22T12:03:50.173Z,3.2
2022-12-22T12:04:50.079Z,3.2
2022-12-22T12:05:50.104Z,3.2
2022-12-22T12:06:50.077Z,3.4
2022-12-22T12:07:50.142Z,3.4
2022-12-22T12:08:50.164Z,3.4
2022-12-22T12:09:50.090Z,1.3
2022-12-22T12:10:50.140Z,1.3
2022-12-22T12:11:50.098Z,1.3
2022-12-22T12:12:50.165Z,1.3
2022-12-22T12:13:50.209Z,2.2
2022-12-22T12:14:50.153Z,2.2
2022-12-22T12:15:50.267Z,2.2
2022-12-22T12:16:50.132Z,1.9
2022-12-22T12:17:50.248Z,1.9
2022-12-22T12:18:50.194Z,1.9
2022-12-22T12:19:50.136Z,1.9
2022-12-22T12:20:50.170Z,1.9
2022-12-22T12:21:50.165Z,1.2
2022-12-22T12:22:50.131Z,1.2
2022-12-22T12:23:50.248Z,1.2
2022-12-22T12:24:50.170Z,1.2
2022-12-22T12:25:50.273Z,3
2022-12-22T12:26:50.149Z,3
2022-12-22T12:27:50.148Z,3
2022-12-22T12:28:50.171Z,3
2022-12-22T12:30:06.386Z,2.6
2022-12-22T12:30:50.302Z,2.6
2022-12-22T12:31:50.235Z,2.6
2022-12-22T12:32:50.156Z,1.2
2022-12-22T12:33:50.166Z,1.2
2022-12-22T12:34:50.145Z,1.2
2022-12-22T12:35:50.205Z,1.2
2022-12-22T12:36:50.176Z,3.4
2022-12-22T12:37:50.161Z,3.4
2022-12-22T12:39:07.258Z,3.4
2022-12-22T12:39:50.150Z,3.4
2022-12-22T12:40:50.191Z,3.6
2022-12-22T12:41:50.163Z,3.6
2022-12-22T12:42:50.318Z,3.6
2022-12-22T12:43:50.198Z,1.6
2022-12-22T12:44:50.168Z,1.6
2022-12-22T12:45:50.162Z,1.6
2022-12-22T12:46:50.281Z,1.2
2022-12-22T12:47:50.172Z,1.2
2022-12-22T12:48:50.376Z,1.2
2022-12-22T12:49:50.155Z,1.2
2022-12-22T12:50:50.174Z,1.2
2022-12-22T12:51:50.270Z,2.8
2022-12-22T12:52:50.277Z,2.8
2022-12-22T12:53:50.356Z,2.8
2022-12-22T12:54:50.219Z,0.6
2022-12-22T12:55:50.230Z,0.6
2022-12-22T12:56:50.276Z,0.6
2022-12-22T12:57:50.304Z,0.6
2022-12-22T12:58:50.441Z,1.2
2022-12-22T12:59:50.228Z,1.2
2022-12-22T13:00:55.442Z,1.2
2022-12-22T13:01:50.409Z,0.5
2022-12-22T13:02:50.423Z,0.5
2022-12-22T13:04:02.895Z,0.5
2022-12-22T13:04:50.270Z,0.5
2022-12-22T13:05:50.230Z,0.5
2022-12-22T13:06:51.193Z,0.5
2022-12-22T13:07:50.287Z,0.5
2022-12-22T13:08:50.292Z,0.5
2022-12-22T13:09:51.381Z,0.6
2022-12-22T13:10:50.345Z,0.6
2022-12-22T13:12:11.559Z,0.6
2022-12-22T13:12:50.377Z,0.6
2022-12-22T13:13:50.333Z,0.7
2022-12-22T13:14:50.237Z,0.7
2022-12-22T13:15:50.426Z,0.7
2022-12-22T13:16:50.342Z,2.9
2022-12-22T13:17:50.515Z,2.9
2022-12-22T13:18:51.515Z,2.9
2022-12-22T13:19:50.283Z,2.9
2022-12-22T13:20:50.354Z,3
2022-12-22T13:21:53.779Z,3
2022-12-22T13:22:50.402Z,3
2022-12-22T13:24:14.809Z,3
2022-12-22T13:24:50.291Z,0.7
2022-12-22T13:25:50.395Z,0.7
2022-12-22T13:26:50.339Z,0.7
2022-12-22T13:27:50.313Z,1.6
2022-12-22T13:28:50.355Z,1.6
2022-12-22T13:29:50.366Z,1.6
2022-12-22T13:30:50.342Z,1.9
2022-12-22T13:31:50.397Z,1.9
2022-12-22T13:32:50.374Z,1.9
2022-12-22T13:33:50.412Z,1.9
2022-12-22T13:35:28.832Z,2.7
2022-12-22T13:35:55.059Z,2.7
2022-12-22T13:36:50.403Z,2.7
2022-12-22T13:37:50.369Z,2.8
2022-12-22T13:38:50.376Z,2.8
2022-12-22T13:39:50.345Z,2.8
2022-12-22T13:40:50.341Z,2.8
2022-12-22T13:41:50.404Z,1.1
2022-12-22T13:42:50.476Z,1.1
2022-12-22T13:43:50.503Z,1.1
2022-12-22T13:44:50.363Z,1.1
2022-12-22T13:45:50.340Z,1.5
2022-12-22T13:46:50.379Z,1.5
2022-12-22T13:47:50.340Z,1.5
2022-12-22T13:48:50.413Z,1.5
2022-12-22T13:50:08.206Z,0.8
2022-12-22T13:50:50.356Z,0.8
2022-12-22T13:51:50.351Z,0.8
2022-12-22T13:52:50.350Z,2.7
2022-12-22T13:54:50.417Z,2.7
2022-12-22T13:55:50.488Z,3.5
2022-12-22T13:56:50.495Z,3.5
2022-12-22T13:57:54.836Z,3.5
2022-12-22T13:58:50.533Z,3.5
2022-12-22T13:59:50.416Z,2.1